Time;durP1;ratioP1;P1;durP2;ratioP2;P2;SDS_P1;SDS_P2;PMS_P1;PMS_P2;Temp;Humidity;BMP_temperature;BMP_pressure;BME280_temperature;BME280_humidity;BME280_pressure;Samples;Min_cycle;Max_cycle;Signal;HPM_P1;HPM_P2
2022/09/09 00:04:59;;;;;;;0.70;0.70;;;;;;;19.30;100.00;100420.16;20775975;28;20049;-75
2022/09/09 00:15:13;;;;;;;1.33;0.88;;;;;;;19.31;100.00;100424.53;20801817;28;20057;-75
2022/09/09 00:25:21;;;;;;;1.38;0.80;;;;;;;19.29;100.00;100413.91;20816251;28;20058;-75
2022/09/09 00:35:50;;;;;;;0.80;0.70;;;;;;;19.28;100.00;100409.53;20718684;28;20217;-74
2022/09/09 00:46:03;;;;;;;0.68;0.68;;;;;;;19.27;100.00;100403.25;20702867;28;20045;-74
2022/09/09 00:56:16;;;;;;;0.60;0.50;;;;;;;19.27;100.00;100402.44;20739210;28;20410;-75
2022/09/09 01:06:23;;;;;;;0.70;0.60;;;;;;;19.27;100.00;100391.63;20737056;28;20409;-75
2022/09/09 01:16:26;;;;;;;0.65;0.63;;;;;;;19.18;99.73;100390.72;20736393;28;20049;-75
2022/09/09 01:26:38;;;;;;;0.65;0.65;;;;;;;19.25;99.80;100407.97;20715616;28;20059;-75
2022/09/09 01:36:54;;;;;;;1.40;0.60;;;;;;;19.25;99.59;100413.38;20707554;28;20545;-75
2022/09/09 01:46:55;;;;;;;0.60;0.60;;;;;;;19.25;99.40;100405.28;20722736;28;20053;-75
2022/09/09 01:57:15;;;;;;;0.70;0.60;;;;;;;19.12;99.19;100385.97;20723640;28;20129;-74
2022/09/09 02:07:31;;;;;;;0.98;0.68;;;;;;;19.24;99.21;100395.47;20720984;28;20070;-75
2022/09/09 02:17:36;;;;;;;0.70;0.50;;;;;;;19.23;99.16;100399.19;20720145;28;20072;-74
2022/09/09 02:27:47;;;;;;;0.88;0.60;;;;;;;19.21;99.27;100393.09;20719018;28;20411;-74
2022/09/09 02:37:51;;;;;;;1.33;0.60;;;;;;;19.24;99.03;100402.75;20701807;28;20045;-74
2022/09/09 02:48:09;;;;;;;1.05;0.50;;;;;;;19.03;98.94;100373.41;20717491;28;20053;-75
2022/09/09 02:58:16;;;;;;;0.47;0.47;;;;;;;19.11;98.97;100381.56;20700746;28;20441;-74
2022/09/09 03:08:23;;;;;;;0.40;0.40;;;;;;;19.22;99.01;100402.88;20627777;28;20038;-75
2022/09/09 03:18:25;;;;;;;0.60;0.47;;;;;;;19.21;98.87;100393.09;20634787;28;20046;-75
2022/09/09 03:28:30;;;;;;;0.50;0.50;;;;;;;19.21;98.61;100393.09;20679093;28;20516;-75
2022/09/09 03:38:34;;;;;;;1.42;1.02;;;;;;;19.22;98.69;100393.94;20695174;28;20079;-75
2022/09/09 03:48:36;;;;;;;0.50;0.50;;;;;;;19.20;98.50;100394.09;20692827;28;20095;-74
2022/09/09 03:58:39;;;;;;;0.75;0.50;;;;;;;19.22;98.44;100404.72;20712586;28;20115;-75
2022/09/09 04:08:42;;;;;;;0.85;0.60;;;;;;;19.20;98.33;100412.13;20773641;28;20132;-74
2022/09/09 04:18:44;;;;;;;0.52;0.50;;;;;;;19.21;98.26;100403.03;20761400;28;20124;-75
2022/09/09 04:28:48;;;;;;;0.63;0.50;;;;;;;19.20;98.29;100406.72;20695940;28;20403;-75
2022/09/09 04:38:52;;;;;;;0.50;0.50;;;;;;;19.20;98.27;100406.72;20712578;28;20040;-74
2022/09/09 04:48:54;;;;;;;1.70;0.82;;;;;;;19.19;97.99;100405.91;20712766;28;20045;-75
2022/09/09 04:59:02;;;;;;;0.80;0.40;;;;;;;19.19;97.96;100408.59;20793004;28;20128;-75
2022/09/09 05:09:16;;;;;;;0.60;0.60;;;;;;;19.19;98.08;100410.44;20711323;28;20048;-74
2022/09/09 05:19:19;;;;;;;0.57;0.45;;;;;;;19.18;97.79;100409.59;20790227;28;20445;-75
2022/09/09 05:29:23;;;;;;;0.38;0.35;;;;;;;19.10;97.87;100385.25;20805489;28;20418;-75
2022/09/09 05:39:24;;;;;;;0.57;0.57;;;;;;;19.18;97.60;100412.31;20785907;28;20072;-75
2022/09/09 05:49:26;;;;;;;1.13;0.60;;;;;;;19.17;97.55;100415.16;20758307;28;20042;-75
2022/09/09 05:59:28;;;;;;;0.50;0.40;;;;;;;19.20;97.64;100413.00;20711341;28;20042;-75
2022/09/09 06:09:31;;;;;;;3.30;1.10;;;;;;;19.24;97.70;100421.63;20698942;28;20569;-75
2022/09/09 06:19:33;;;;;;;0.60;0.47;;;;;;;19.26;97.97;100416.94;20692457;28;20050;-75
2022/09/09 06:29:35;;;;;;;0.68;0.50;;;;;;;19.00;97.63;100363.78;20692109;28;20045;-74
2022/09/09 06:39:36;;;;;;;1.90;0.60;;;;;;;19.30;97.73;100401.25;20692007;28;20157;-75
2022/09/09 06:49:38;;;;;;;1.48;0.57;;;;;;;19.32;97.55;100420.84;20721122;28;20498;-75
2022/09/09 06:59:43;;;;;;;2.70;0.93;;;;;;;19.33;97.59;100414.44;20765875;28;20049;-75
2022/09/09 07:09:45;;;;;;;1.15;0.40;;;;;;;19.34;96.88;100416.13;20724167;28;20041;-75
2022/09/09 07:19:48;;;;;;;1.80;0.65;;;;;;;19.36;97.10;100400.63;20686932;28;20050;-74
2022/09/09 07:29:51;;;;;;;2.22;0.63;;;;;;;19.38;96.82;100404.00;20665776;28;20049;-75
2022/09/09 07:39:55;;;;;;;1.30;0.50;;;;;;;19.39;96.88;100395.75;20713786;28;20042;-75
2022/09/09 07:49:57;;;;;;;1.30;0.52;;;;;;;19.28;96.96;100383.38;20701807;28;20414;-75
2022/09/09 08:00:04;;;;;;;1.35;0.50;;;;;;;19.43;96.92;100401.66;20717641;28;20054;-75
2022/09/09 08:10:14;;;;;;;2.00;0.55;;;;;;;19.37;96.94;100405.88;20718141;28;20092;-75
2022/09/09 08:20:16;;;;;;;0.50;0.30;;;;;;;19.48;97.09;100418.25;20728210;28;20037;-75
2022/09/09 08:30:18;;;;;;;2.17;0.80;;;;;;;19.49;97.23;100414.56;20761179;28;20053;-74
2022/09/09 08:40:27;;;;;;;1.90;0.70;;;;;;;19.51;97.92;100442.25;20752003;28;20046;-75
2022/09/09 08:50:35;;;;;;;2.38;0.90;;;;;;;19.34;98.42;100406.19;20743016;28;20057;-75
2022/09/09 09:01:13;;;;;;;1.85;1.00;;;;;;;19.55;99.20;100430.13;20690182;28;20050;-75
2022/09/09 09:11:23;;;;;;;2.03;0.80;;;;;;;19.58;99.09;100452.41;20717157;28;20068;-75
2022/09/09 09:21:40;;;;;;;2.10;0.60;;;;;;;19.40;99.04;100432.53;20672573;28;20045;-75
2022/09/09 09:31:45;;;;;;;3.17;0.80;;;;;;;19.59;99.28;100454.09;20746075;28;20045;-75
2022/09/09 09:41:47;;;;;;;3.85;0.90;;;;;;;19.61;99.26;100449.38;20673720;28;20057;-75
2022/09/09 09:51:49;;;;;;;1.55;0.60;;;;;;;19.60;99.56;100455.78;20709010;28;20483;-74
2022/09/09 10:01:51;;;;;;;3.25;0.95;;;;;;;19.63;100.00;100450.06;20693909;28;20171;-75
2022/09/09 10:12:22;;;;;;;1.90;0.80;;;;;;;19.65;100.00;100454.28;20697377;28;20053;-75
2022/09/09 10:22:28;;;;;;;1.83;0.60;;;;;;;19.64;99.89;100449.91;20703913;28;20042;-76
2022/09/09 10:32:38;;;;;;;2.97;0.95;;;;;;;19.67;100.00;100462.25;20702205;28;20054;-75
2022/09/09 10:42:40;;;;;;;5.10;1.08;;;;;;;19.69;100.00;100449.44;20711153;28;20423;-75
2022/09/09 10:52:55;;;;;;;2.42;0.73;;;;;;;19.72;100.00;100449.13;20659704;28;20053;-75
2022/09/09 11:02:59;;;;;;;1.43;0.73;;;;;;;19.73;99.83;100440.00;20713456;28;20410;-75
2022/09/09 11:13:04;;;;;;;2.97;0.82;;;;;;;19.74;99.58;100439.00;20750188;28;20076;-75
2022/09/09 11:23:13;;;;;;;2.05;0.60;;;;;;;19.55;99.31;100408.53;20753932;28;20100;-75
2022/09/09 11:33:37;;;;;;;2.88;0.80;;;;;;;19.79;99.09;100446.63;20680654;28;20046;-75
2022/09/09 11:43:43;;;;;;;2.30;0.90;;;;;;;19.80;98.54;100449.16;20670091;28;20057;-75
2022/09/09 11:53:52;;;;;;;1.48;0.65;;;;;;;19.80;98.41;100446.44;20690146;28;20054;-74
2022/09/09 12:04:09;;;;;;;1.23;0.70;;;;;;;19.81;98.06;100441.91;20705039;28;20054;-75
2022/09/09 12:14:54;;;;;;;2.05;0.75;;;;;;;19.82;97.56;100436.34;20697844;28;20074;-75
2022/09/09 12:25:06;;;;;;;4.07;0.73;;;;;;;19.77;97.51;100427.88;20652028;28;20050;-75
2022/09/09 12:35:27;;;;;;;2.40;1.02;;;;;;;19.55;97.43;100383.34;20659600;28;20102;-75
2022/09/09 12:45:31;;;;;;;4.85;1.02;;;;;;;19.84;97.27;100418.09;20758028;28;20398;-75
2022/09/09 12:55:36;;;;;;;4.17;1.03;;;;;;;19.84;97.03;100415.41;20733488;28;20072;-76
2022/09/09 13:05:38;;;;;;;1.33;0.50;;;;;;;19.58;97.02;100393.00;20762404;28;20060;-76
2022/09/09 13:15:49;;;;;;;1.13;0.52;;;;;;;19.81;96.89;100406.78;20737983;28;20154;-76
2022/09/09 13:25:59;;;;;;;0.68;0.50;;;;;;;19.81;96.97;100404.94;20753341;28;20049;-76
2022/09/09 13:36:05;;;;;;;0.80;0.50;;;;;;;19.89;96.60;100400.59;20761882;28;20049;-75
2022/09/09 13:46:29;;;;;;;1.70;0.57;;;;;;;19.90;96.33;100389.66;20759181;28;20049;-76
2022/09/09 13:56:35;;;;;;;2.47;0.50;;;;;;;19.91;96.24;100401.31;20734430;28;22256;-76
2022/09/09 14:06:39;;;;;;;1.20;0.50;;;;;;;19.89;95.88;100417.63;20680284;28;20079;-75
2022/09/09 14:16:40;;;;;;;1.47;0.70;;;;;;;19.86;95.97;100423.38;20699845;28;20417;-74
2022/09/09 14:26:42;;;;;;;2.75;0.50;;;;;;;19.86;95.72;100439.56;20764589;28;20961;-74
2022/09/09 14:36:44;;;;;;;0.98;0.50;;;;;;;19.83;96.13;100434.50;20744921;28;20448;-74
2022/09/09 14:46:46;;;;;;;1.70;0.60;;;;;;;19.81;96.38;100434.63;20745335;28;20049;-76
2022/09/09 14:56:47;;;;;;;3.97;0.77;;;;;;;19.81;97.09;100417.59;20742421;28;20121;-75
2022/09/09 15:06:52;;;;;;;1.58;0.50;;;;;;;19.85;97.78;100418.97;20663294;28;20046;-75
2022/09/09 15:16:53;;;;;;;2.63;0.60;;;;;;;19.90;97.86;100411.25;20663946;28;20046;-75
2022/09/09 15:26:56;;;;;;;11.40;0.98;;;;;;;19.95;97.87;100408.09;20665493;28;20616;-76
2022/09/09 15:36:59;;;;;;;1.48;0.50;;;;;;;19.96;97.61;100407.06;20656133;28;20491;-75
2022/09/09 15:47:01;;;;;;;2.47;0.60;;;;;;;19.96;97.93;100396.28;20689283;28;20056;-76
2022/09/09 15:57:03;;;;;;;2.00;0.47;;;;;;;19.94;97.58;100398.28;20713686;28;20048;-76
2022/09/09 16:07:06;;;;;;;1.77;0.90;;;;;;;19.71;97.47;100386.16;20741320;28;20053;-76
2022/09/09 16:17:07;;;;;;;2.15;1.00;;;;;;;19.83;97.83;100405.63;20744104;28;20067;-75
2022/09/09 16:27:09;;;;;;;3.53;1.10;;;;;;;19.79;98.35;100406.94;20727315;28;20053;-76
2022/09/09 16:37:11;;;;;;;4.13;1.42;;;;;;;19.78;99.70;100410.66;20731467;28;20077;-77
2022/09/09 16:47:13;;;;;;;3.53;1.00;;;;;;;19.85;100.00;100406.28;20684201;28;20097;-76
2022/09/09 16:57:14;;;;;;;3.35;0.88;;;;;;;19.80;100.00;100392.44;20680760;28;20053;-76
2022/09/09 17:07:15;;;;;;;3.00;0.93;;;;;;;19.97;100.00;100420.41;20764292;28;20123;-77
2022/09/09 17:17:17;;;;;;;2.28;0.63;;;;;;;20.01;100.00;100447.97;20770354;28;20053;-77
2022/09/09 17:27:33;;;;;;;2.05;0.90;;;;;;;19.97;100.00;100442.03;20766197;28;20051;-77
2022/09/09 17:37:34;;;;;;;2.50;1.17;;;;;;;19.90;100.00;100434.72;20676021;28;20111;-76
2022/09/09 17:47:36;;;;;;;1.88;0.60;;;;;;;20.03;100.00;100451.34;20666348;28;20129;-76
2022/09/09 17:57:37;;;;;;;2.35;0.75;;;;;;;20.03;100.00;100456.75;20681321;28;20479;-76
2022/09/09 18:07:39;;;;;;;1.55;0.80;;;;;;;19.97;100.00;100443.91;20673695;28;20052;-75
2022/09/09 18:17:41;;;;;;;1.73;0.70;;;;;;;20.02;100.00;100465.88;20670029;28;20054;-75
2022/09/09 18:27:42;;;;;;;1.30;0.60;;;;;;;20.00;100.00;100468.72;20672830;28;20042;-76
2022/09/09 18:37:46;;;;;;;1.75;0.63;;;;;;;19.98;99.94;100473.44;20677823;28;20556;-77
2022/09/09 18:47:47;;;;;;;1.97;0.70;;;;;;;19.89;99.91;100470.84;20684045;28;20072;-76
2022/09/09 18:57:49;;;;;;;2.38;0.80;;;;;;;19.88;99.81;100474.50;20677868;28;20411;-76
2022/09/09 19:07:51;;;;;;;1.70;0.80;;;;;;;19.94;99.52;100484.75;20687214;28;20061;-76
2022/09/09 19:17:55;;;;;;;3.72;1.30;;;;;;;19.90;99.34;100503.09;20707379;28;20790;-76
2022/09/09 19:27:57;;;;;;;3.15;1.10;;;;;;;19.85;99.58;100508.94;20714590;28;20467;-75
2022/09/09 19:38:00;;;;;;;3.53;1.20;;;;;;;19.81;99.73;100499.47;20716203;28;20046;-76
2022/09/09 19:48:01;;;;;;;3.13;1.30;;;;;;;19.79;99.75;100512.28;20714877;28;20073;-76
2022/09/09 19:58:06;;;;;;;3.38;1.02;;;;;;;19.78;99.78;100507.88;20710579;28;20054;-76
2022/09/09 20:08:07;;;;;;;2.10;0.80;;;;;;;19.58;100.00;100490.22;20720231;28;20572;-76
2022/09/09 20:18:09;;;;;;;2.08;1.00;;;;;;;19.73;99.94;100539.94;20719751;28;20091;-76
2022/09/09 20:28:10;;;;;;;2.47;0.70;;;;;;;19.72;100.00;100527.44;20695814;28;20406;-76
2022/09/09 20:38:12;;;;;;;2.75;0.82;;;;;;;19.70;100.00;100527.59;20721843;28;20561;-76
2022/09/09 20:48:13;;;;;;;2.67;0.90;;;;;;;19.69;100.00;100528.63;20730195;28;20132;-76
2022/09/09 20:58:15;;;;;;;2.38;1.02;;;;;;;19.68;100.00;100528.75;20750902;28;20099;-76
2022/09/09 21:08:16;;;;;;;1.85;0.85;;;;;;;19.67;100.00;100522.53;20809739;28;20056;-76
2022/09/09 21:18:18;;;;;;;1.60;0.80;;;;;;;19.67;100.00;100529.75;20809792;28;20091;-76
2022/09/09 21:28:20;;;;;;;1.83;0.80;;;;;;;19.64;100.00;100539.00;20806698;28;20052;-76
2022/09/09 21:38:23;;;;;;;2.53;0.90;;;;;;;19.64;100.00;100539.00;20788559;28;20205;-76
2022/09/09 21:48:25;;;;;;;1.40;0.68;;;;;;;19.64;100.00;100548.97;20803256;28;20375;-76
2022/09/09 21:58:27;;;;;;;1.48;0.70;;;;;;;19.57;100.00;100548.75;20803805;28;20603;-76
2022/09/09 22:08:28;;;;;;;1.45;0.90;;;;;;;19.61;99.90;100571.72;20803230;28;20045;-76
2022/09/09 22:18:31;;;;;;;2.10;0.80;;;;;;;19.35;99.92;100515.84;20809905;28;20060;-79
2022/09/09 22:28:33;;;;;;;0.73;0.60;;;;;;;19.52;99.60;100553.78;20803911;28;20050;-76
2022/09/09 22:38:35;;;;;;;1.15;0.80;;;;;;;19.42;99.86;100556.53;20795131;28;20049;-76
2022/09/09 22:48:37;;;;;;;2.33;0.95;;;;;;;19.44;99.54;100551.84;20795332;28;20463;-76
2022/09/09 22:58:39;;;;;;;1.80;0.90;;;;;;;19.34;99.58;100526.78;20799225;28;20049;-76
2022/09/09 23:08:40;;;;;;;2.15;1.05;;;;;;;19.56;99.42;100585.72;20800398;28;20116;-76
2022/09/09 23:18:45;;;;;;;0.77;0.70;;;;;;;19.34;99.44;100551.94;20799027;28;20049;-76
2022/09/09 23:28:48;;;;;;;1.75;0.80;;;;;;;19.54;99.33;100593.13;20795990;28;20049;-76
2022/09/09 23:38:50;;;;;;;1.40;0.75;;;;;;;18.70;99.28;100465.59;20797871;28;20053;-76
2022/09/09 23:48:51;;;;;;;1.35;0.70;;;;;;;19.53;99.02;100586.03;20794575;28;20054;-76
2022/09/09 23:58:53;;;;;;;1.20;0.65;;;;;;;19.52;99.16;100594.28;20795651;28;20047;-76
